• Join FlightAware (Why Join?)
  • Login
  • US Flag 
05:11AM EST


 

Airport Tracker/Info


-or-


 

Live Flight TrackerFlight Track Log ✈ DAL6057 ✈ 20-Apr-2013 ✈ KJFK - CYUL

Flight Track Log - Related Links

Times and Time Zones

All times are in EDT time to prevent confusion due to time zone crossing. See the DAL6057 flight status page for this flight to view local times or setup timezone preferences in your user account.

Time Position Orientation Groundspeed Altitude Reporting Facility
EDT Latitude Longitude Course Direction KTS MPH feet Rate Location/Type
08:01PM 40.6167 -73.7833 21° North 171 197 1,600  Level New York TRACON
08:02PM 40.5667 -73.7833 180° South 260 299 3,600 2,580 Climbing New York TRACON
08:03PM 40.5833 -73.6833 78° East 259 298 6,800 2,700 Climbing New York TRACON
08:04PM 41.1420 -73.4831 27° Northeast  Level FlightAware Approximate
08:04PM 40.6333 -73.6167 45° Northeast 278 320 9,000  Level New York TRACON
08:05PM 41.2459 -73.4305 27° Northeast  Level FlightAware Approximate
08:05PM 40.6833 -73.5333 52° Northeast 309 356 10,600  Level New York TRACON
08:06PM 41.3473 -73.3680 21° North  Level FlightAware Approximate
08:06PM 40.7667 -73.5167 North 328 377 11,900  Level New York TRACON
08:08PM 40.9931 -73.4767 North 348 400 15,100 1,140 Climbing Boston Center
08:09PM 41.0911 -73.4592 North 384 442 15,900 540 Climbing Boston Center
08:10PM 41.2417 -73.4036 16° North 421 484 16,400 780 Climbing Boston Center
08:11PM 41.3631 -73.3583 16° North 437 503 17,500 840 Climbing Boston Center
08:12PM 41.4739 -73.3128 17° North 442 509 18,100 720 Climbing Boston Center
08:13PM 41.5808 -73.1894 41° Northeast 454 522 19,000 900 Climbing Boston Center
08:14PM 41.7000 -73.1269 21° North 451 519 19,900 720 Climbing Boston Center
08:15PM 41.8064 -73.1364 356° North 429 494 20,500 660 Climbing Boston Center
08:16PM 41.9292 -73.1600 352° North 422 486 21,300 780 Climbing Boston Center
08:17PM 42.0561 -73.1811 353° North 435 501 22,100 840 Climbing Boston Center
08:18PM 42.1811 -73.2022 353° North 448 516 23,000 900 Climbing Boston Center
08:19PM 42.3081 -73.2261 352° North 453 521 23,900 720 Climbing Boston Center
08:21PM 42.4350 -73.2389 356° North 458 527 24,700 480 Climbing Boston Center
08:22PM 42.5892 -73.2692 352° North 464 534 25,000 120 Climbing Boston Center
08:23PM 42.7222 -73.2992 351° North 470 541 25,000  Level Boston Center
08:24PM 42.8597 -73.3239 352° North 481 554 25,000  Level Boston Center
08:25PM 42.9969 -73.3486 352° North 486 559 25,000  Level Boston Center
08:26PM 43.1364 -73.3619 356° North 496 571 25,000  Level Boston Center
08:27PM 43.2678 -73.3753 356° North 485 558 25,000  Level Boston Center
08:28PM 43.4053 -73.3889 356° North 485 558 25,000  Level Boston Center
08:29PM 43.5425 -73.4025 356° North 490 564 25,000  Level Boston Center
08:30PM 43.6903 -73.4192 355° North 490 564 25,000  Level Boston Center
08:31PM 43.8278 -73.4331 356° North 490 564 25,000  Level Boston Center
08:32PM 43.9569 -73.4467 356° North 477 549 25,000  Level Boston Center
08:33PM 44.0922 -73.4606 356° North 477 549 25,000 -600 Level Boston Center
08:34PM 44.2256 -73.4744 356° North 477 549 23,900 -1,320 Descending Boston Center
08:35PM 44.3544 -73.4881 356° North 477 549 22,400 -1,440 Descending Boston Center
08:36PM 44.4586 -73.4986 356° North 472 543 21,100 -1,680 Descending Boston Center
08:37PM 44.5958 -73.5158 355° North 461 531 19,100 -2,040 Descending Boston Center
08:38PM 44.7125 -73.5267 356° North 440 506 17,100 -2,100 Descending Boston Center
08:39PM 44.8206 -73.5403 355° North 410 472 15,000 -2,100 Descending Boston Center
08:39PM 44.9000 -73.5333 North 380 437 13,500 -1,980 Descending Montreal Center
08:40PM 45.0000 -73.5500 353° North 360 414 11,700 -1,560 Descending Montreal Center
08:41PM 45.1000 -73.5500 360° North 320 368 10,400 -1,140 Descending Montreal Center
08:42PM 45.1667 -73.5667 350° North 270 311 9,500 -960 Descending Montreal Center
08:43PM 45.2500 -73.5667 360° North 270 311 8,500 -900 Descending Montreal Center
08:44PM 45.3167 -73.5833 350° North 260 299 7,800 -960 Descending Montreal Center
08:45PM 45.3833 -73.5667 10° North 250 288 6,600 -1,380 Descending Montreal Center
08:46PM 45.4500 -73.5500 10° North 250 288 5,100 -1,500 Descending Montreal Center
08:47PM 45.5167 -73.5333 10° North 240 276 3,600 -1,080 Descending Montreal Center
08:48PM 45.5833 -73.5333 360° North 210 242 3,000 -360 Descending Montreal Center
08:49PM 45.5667 -73.6000 250° West 200 230 2,900 -600 Descending Montreal Center
08:50PM 45.5333 -73.6500 226° Southwest 180 207 1,900 -900 Descending Montreal Center
08:51PM 45.5000 -73.6667 199° South 130 150 1,100 -780 Descending Montreal Center
08:52PM 45.4833 -73.7167 245° Southwest 130 150 400 -540 Descending Montreal Center
08:53PM 45.4500 -73.7500 215° Southwest 50 58 100 -180 Descending Montreal Center
08:54PM 45.4500 -73.7500 215° Southwest 20 23 100  Level Montreal Center